sensor_id;sensor_type;location;lat;lon;timestamp;pressure;altitude;pressure_sealevel;temperature;humidity
80533;BME280;69861;48.642;9.142;2023-05-07T00:01:37;96921.00;;;22.86;40.71
80533;BME280;69861;48.642;9.142;2023-05-07T00:04:02;96922.59;;;22.87;40.28
80533;BME280;69861;48.642;9.142;2023-05-07T00:06:28;96924.72;;;22.90;40.68
80533;BME280;69861;48.642;9.142;2023-05-07T00:08:54;96922.84;;;22.90;40.39
80533;BME280;69861;48.642;9.142;2023-05-07T00:11:20;96920.69;;;22.92;40.41
80533;BME280;69861;48.642;9.142;2023-05-07T00:13:45;96921.78;;;22.91;40.50
80533;BME280;69861;48.642;9.142;2023-05-07T00:16:10;96915.63;;;22.91;40.64
80533;BME280;69861;48.642;9.142;2023-05-07T00:18:36;96915.63;;;22.91;40.43
80533;BME280;69861;48.642;9.142;2023-05-07T00:21:01;96916.44;;;22.91;40.61
80533;BME280;69861;48.642;9.142;2023-05-07T00:23:26;96916.44;;;22.91;40.46
80533;BME280;69861;48.642;9.142;2023-05-07T00:25:52;96914.25;;;22.93;40.42
80533;BME280;69861;48.642;9.142;2023-05-07T00:28:17;96911.84;;;22.97;40.51
80533;BME280;69861;48.642;9.142;2023-05-07T00:30:42;96912.13;;;22.96;40.31
80533;BME280;69861;48.642;9.142;2023-05-07T00:33:08;96910.28;;;22.91;40.35
80533;BME280;69861;48.642;9.142;2023-05-07T00:35:33;96907.88;;;22.89;40.58
80533;BME280;69861;48.642;9.142;2023-05-07T00:37:58;96917.19;;;22.92;40.22
80533;BME280;69861;48.642;9.142;2023-05-07T00:40:24;96915.88;;;22.89;40.34
80533;BME280;69861;48.642;9.142;2023-05-07T00:42:49;96914.03;;;22.90;40.19
80533;BME280;69861;48.642;9.142;2023-05-07T00:45:16;96912.16;;;22.90;40.44
80533;BME280;69861;48.642;9.142;2023-05-07T00:47:42;96904.94;;;22.91;40.26
80533;BME280;69861;48.642;9.142;2023-05-07T00:50:08;96906.81;;;22.90;40.46
80533;BME280;69861;48.642;9.142;2023-05-07T00:52:37;96909.47;;;22.90;40.44
80533;BME280;69861;48.642;9.142;2023-05-07T00:55:05;96892.09;;;22.93;40.18
80533;BME280;69861;48.642;9.142;2023-05-07T00:57:36;96900.94;;;22.88;40.40
80533;BME280;69861;48.642;9.142;2023-05-07T01:00:04;96901.97;;;22.92;40.02
80533;BME280;69861;48.642;9.142;2023-05-07T01:02:29;96893.72;;;22.89;40.44
80533;BME280;69861;48.642;9.142;2023-05-07T01:04:56;96896.38;;;22.89;40.30
80533;BME280;69861;48.642;9.142;2023-05-07T01:07:22;96895.31;;;22.90;40.48
80533;BME280;69861;48.642;9.142;2023-05-07T01:09:48;96899.34;;;22.87;40.37
80533;BME280;69861;48.642;9.142;2023-05-07T01:12:14;96889.97;;;22.90;40.33
80533;BME280;69861;48.642;9.142;2023-05-07T01:14:40;96895.59;;;22.88;40.50
80533;BME280;69861;48.642;9.142;2023-05-07T01:17:06;96902.78;;;22.88;40.12
80533;BME280;69861;48.642;9.142;2023-05-07T01:19:32;96902.84;;;23.22;41.01
80533;BME280;69861;48.642;9.142;2023-05-07T01:22:02;96895.59;;;23.27;39.75
80533;BME280;69861;48.642;9.142;2023-05-07T01:24:30;96897.34;;;23.42;39.48
80533;BME280;69861;48.642;9.142;2023-05-07T01:26:56;96897.63;;;23.41;39.64
80533;BME280;69861;48.642;9.142;2023-05-07T01:29:21;96893.97;;;23.31;39.37
80533;BME280;69861;48.642;9.142;2023-05-07T01:31:47;96892.28;;;23.41;39.85
80533;BME280;69861;48.642;9.142;2023-05-07T01:34:14;96898.06;;;23.58;39.64
80533;BME280;69861;48.642;9.142;2023-05-07T01:36:42;96886.78;;;23.61;39.51
80533;BME280;69861;48.642;9.142;2023-05-07T01:39:08;96884.06;;;23.66;39.82
80533;BME280;69861;48.642;9.142;2023-05-07T01:41:34;96890.22;;;23.66;39.47
80533;BME280;69861;48.642;9.142;2023-05-07T01:44:01;96888.03;;;23.68;39.41
80533;BME280;69861;48.642;9.142;2023-05-07T01:46:28;96893.63;;;23.72;39.63
80533;BME280;69861;48.642;9.142;2023-05-07T01:48:55;96893.63;;;23.72;39.56
80533;BME280;69861;48.642;9.142;2023-05-07T01:51:21;96903.78;;;23.75;39.60
80533;BME280;69861;48.642;9.142;2023-05-07T01:53:47;96894.16;;;23.74;39.42
80533;BME280;69861;48.642;9.142;2023-05-07T01:56:16;96893.84;;;23.75;39.57
80533;BME280;69861;48.642;9.142;2023-05-07T01:58:41;96892.78;;;23.76;39.65
80533;BME280;69861;48.642;9.142;2023-05-07T02:01:06;96887.97;;;23.78;39.26
80533;BME280;69861;48.642;9.142;2023-05-07T02:03:31;96894.13;;;23.79;39.25
80533;BME280;69861;48.642;9.142;2023-05-07T02:05:57;96892.25;;;23.79;39.17
80533;BME280;69861;48.642;9.142;2023-05-07T02:08:22;96892.50;;;23.78;39.45
80533;BME280;69861;48.642;9.142;2023-05-07T02:10:47;96894.13;;;23.79;39.76
80533;BME280;69861;48.642;9.142;2023-05-07T02:13:13;96894.13;;;23.79;39.21
80533;BME280;69861;48.642;9.142;2023-05-07T02:15:38;96889.56;;;23.79;39.19
80533;BME280;69861;48.642;9.142;2023-05-07T02:18:05;96888.75;;;23.79;39.45
80533;BME280;69861;48.642;9.142;2023-05-07T02:20:31;96890.34;;;23.80;39.42
80533;BME280;69861;48.642;9.142;2023-05-07T02:22:56;96888.75;;;23.79;39.64
80533;BME280;69861;48.642;9.142;2023-05-07T02:25:22;96896.22;;;23.82;39.68
80533;BME280;69861;48.642;9.142;2023-05-07T02:27:47;96898.91;;;23.82;39.36
80533;BME280;69861;48.642;9.142;2023-05-07T02:30:13;96890.81;;;23.87;39.81
80533;BME280;69861;48.642;9.142;2023-05-07T02:32:39;96886.78;;;23.90;39.31
80533;BME280;69861;48.642;9.142;2023-05-07T02:35:05;96883.03;;;23.91;39.58
80533;BME280;69861;48.642;9.142;2023-05-07T02:37:30;96885.97;;;23.89;39.61
80533;BME280;69861;48.642;9.142;2023-05-07T02:39:55;96890.25;;;23.90;39.49
80533;BME280;69861;48.642;9.142;2023-05-07T02:42:21;96887.56;;;23.90;39.60
80533;BME280;69861;48.642;9.142;2023-05-07T02:44:46;96898.28;;;23.90;39.42
80533;BME280;69861;48.642;9.142;2023-05-07T02:47:12;96896.63;;;23.94;39.20
80533;BME280;69861;48.642;9.142;2023-05-07T02:49:38;96900.38;;;23.93;39.46
80533;BME280;69861;48.642;9.142;2023-05-07T02:52:03;96900.38;;;23.93;39.56
80533;BME280;69861;48.642;9.142;2023-05-07T02:54:28;96896.63;;;23.94;39.50
80533;BME280;69861;48.642;9.142;2023-05-07T02:56:53;96900.09;;;23.95;39.55
80533;BME280;69861;48.642;9.142;2023-05-07T02:59:19;96895.03;;;23.93;39.39
80533;BME280;69861;48.642;9.142;2023-05-07T03:01:44;96890.19;;;23.95;39.36
80533;BME280;69861;48.642;9.142;2023-05-07T03:04:10;96891.28;;;23.94;39.64
80533;BME280;69861;48.642;9.142;2023-05-07T03:06:36;96880.56;;;23.94;39.49
80533;BME280;69861;48.642;9.142;2023-05-07T03:09:01;96881.09;;;23.96;39.27
80533;BME280;69861;48.642;9.142;2023-05-07T03:11:27;96873.06;;;23.96;39.30
80533;BME280;69861;48.642;9.142;2023-05-07T03:13:52;96876.28;;;23.93;38.95
80533;BME280;69861;48.642;9.142;2023-05-07T03:16:17;96870.66;;;23.95;39.46
80533;BME280;69861;48.642;9.142;2023-05-07T03:18:43;96878.41;;;23.96;39.35
80533;BME280;69861;48.642;9.142;2023-05-07T03:21:08;96875.75;;;23.96;39.12
80533;BME280;69861;48.642;9.142;2023-05-07T03:23:33;96874.16;;;23.95;39.40
80533;BME280;69861;48.642;9.142;2023-05-07T03:25:59;96878.41;;;23.96;39.37
80533;BME280;69861;48.642;9.142;2023-05-07T03:28:24;96873.06;;;23.96;39.31
80533;BME280;69861;48.642;9.142;2023-05-07T03:30:50;96880.00;;;23.97;39.33
80533;BME280;69861;48.642;9.142;2023-05-07T03:33:18;96876.81;;;23.95;39.26
80533;BME280;69861;48.642;9.142;2023-05-07T03:35:44;96877.63;;;23.96;39.39
80533;BME280;69861;48.642;9.142;2023-05-07T03:38:09;96880.00;;;23.97;39.21
80533;BME280;69861;48.642;9.142;2023-05-07T03:40:34;96870.41;;;23.96;38.96
80533;BME280;69861;48.642;9.142;2023-05-07T03:43:00;96873.34;;;23.95;39.29
80533;BME280;69861;48.642;9.142;2023-05-07T03:45:25;96866.38;;;23.94;39.29
80533;BME280;69861;48.642;9.142;2023-05-07T03:47:51;96870.41;;;23.96;39.03
80533;BME280;69861;48.642;9.142;2023-05-07T03:50:16;96872.28;;;23.96;38.90
80533;BME280;69861;48.642;9.142;2023-05-07T03:52:41;96873.63;;;23.93;39.21
80533;BME280;69861;48.642;9.142;2023-05-07T03:55:07;96870.94;;;23.93;39.12
80533;BME280;69861;48.642;9.142;2023-05-07T03:57:33;96869.34;;;23.92;39.10
80533;BME280;69861;48.642;9.142;2023-05-07T03:59:58;96884.31;;;23.93;39.21
80533;BME280;69861;48.642;9.142;2023-05-07T04:02:23;96880.84;;;23.93;39.33
80533;BME280;69861;48.642;9.142;2023-05-07T04:04:49;96881.66;;;23.93;39.43
80533;BME280;69861;48.642;9.142;2023-05-07T04:07:14;96890.19;;;23.95;39.24
80533;BME280;69861;48.642;9.142;2023-05-07T04:09:40;96876.81;;;23.95;39.21
80533;BME280;69861;48.642;9.142;2023-05-07T04:12:05;96887.53;;;23.95;39.06
80533;BME280;69861;48.642;9.142;2023-05-07T04:14:31;96887.53;;;23.95;39.31
80533;BME280;69861;48.642;9.142;2023-05-07T04:16:57;96890.69;;;23.97;39.40
80533;BME280;69861;48.642;9.142;2023-05-07T04:19:23;96895.25;;;23.97;39.29
80533;BME280;69861;48.642;9.142;2023-05-07T04:21:48;96898.47;;;23.99;38.98
80533;BME280;69861;48.642;9.142;2023-05-07T04:24:14;96889.63;;;23.98;39.32
80533;BME280;69861;48.642;9.142;2023-05-07T04:26:39;96890.16;;;24.00;39.35
80533;BME280;69861;48.642;9.142;2023-05-07T04:29:05;96903.53;;;24.00;39.06
80533;BME280;69861;48.642;9.142;2023-05-07T04:31:30;96894.97;;;23.98;39.18
80533;BME280;69861;48.642;9.142;2023-05-07T04:33:56;96893.09;;;23.99;38.84
80533;BME280;69861;48.642;9.142;2023-05-07T04:36:22;96889.34;;;24.00;39.20
80533;BME280;69861;48.642;9.142;2023-05-07T04:38:47;96890.16;;;24.00;39.06
80533;BME280;69861;48.642;9.142;2023-05-07T04:41:13;96884.00;;;24.00;39.17
80533;BME280;69861;48.642;9.142;2023-05-07T04:43:38;96886.38;;;24.01;38.92
80533;BME280;69861;48.642;9.142;2023-05-07T04:46:03;96894.41;;;24.01;39.05
80533;BME280;69861;48.642;9.142;2023-05-07T04:48:29;96890.94;;;24.01;39.10
80533;BME280;69861;48.642;9.142;2023-05-07T04:50:54;96893.34;;;24.02;38.88
80533;BME280;69861;48.642;9.142;2023-05-07T04:53:20;96897.31;;;24.05;39.07
80533;BME280;69861;48.642;9.142;2023-05-07T04:55:46;96897.31;;;24.05;38.85
80533;BME280;69861;48.642;9.142;2023-05-07T04:58:12;96901.88;;;24.04;38.89
80533;BME280;69861;48.642;9.142;2023-05-07T05:00:37;96918.19;;;24.08;38.92
80533;BME280;69861;48.642;9.142;2023-05-07T05:03:04;96906.94;;;24.06;39.00
80533;BME280;69861;48.642;9.142;2023-05-07T05:05:30;96913.03;;;24.11;39.17
80533;BME280;69861;48.642;9.142;2023-05-07T05:07:55;96919.69;;;24.14;39.01
80533;BME280;69861;48.642;9.142;2023-05-07T05:10:21;96917.28;;;24.17;39.10
80533;BME280;69861;48.642;9.142;2023-05-07T05:12:47;96916.72;;;24.20;38.91
80533;BME280;69861;48.642;9.142;2023-05-07T05:15:12;96929.00;;;24.21;38.93
80533;BME280;69861;48.642;9.142;2023-05-07T05:17:38;96928.47;;;24.24;38.70
80533;BME280;69861;48.642;9.142;2023-05-07T05:20:04;96934.63;;;24.25;38.90
80533;BME280;69861;48.642;9.142;2023-05-07T05:22:30;96931.16;;;24.24;38.93
80533;BME280;69861;48.642;9.142;2023-05-07T05:24:56;96935.91;;;24.27;38.47
80533;BME280;69861;48.642;9.142;2023-05-07T05:27:22;96935.34;;;24.31;38.77
80533;BME280;69861;48.642;9.142;2023-05-07T05:29:47;96938.81;;;24.31;38.68
80533;BME280;69861;48.642;9.142;2023-05-07T05:32:12;96943.59;;;24.34;38.62
80533;BME280;69861;48.642;9.142;2023-05-07T05:34:37;96946.81;;;24.36;38.69
80533;BME280;69861;48.642;9.142;2023-05-07T05:37:03;96942.47;;;24.40;38.31
80533;BME280;69861;48.642;9.142;2023-05-07T05:39:28;96933.63;;;24.40;38.27
80533;BME280;69861;48.642;9.142;2023-05-07T05:41:53;96942.69;;;24.44;38.59
80533;BME280;69861;48.642;9.142;2023-05-07T05:44:19;96937.06;;;24.45;38.54
80533;BME280;69861;48.642;9.142;2023-05-07T05:46:44;96933.22;;;24.51;38.56
80533;BME280;69861;48.642;9.142;2023-05-07T05:49:09;96937.50;;;24.52;38.50
80533;BME280;69861;48.642;9.142;2023-05-07T05:51:35;96941.47;;;24.55;38.29
80533;BME280;69861;48.642;9.142;2023-05-07T05:54:00;96940.94;;;24.58;38.00
80533;BME280;69861;48.642;9.142;2023-05-07T05:56:26;96932.31;;;24.61;38.28
80533;BME280;69861;48.642;9.142;2023-05-07T05:58:51;96949.03;;;24.53;38.60
80533;BME280;69861;48.642;9.142;2023-05-07T06:01:17;96947.00;;;24.63;38.74
80533;BME280;69861;48.642;9.142;2023-05-07T06:03:44;96943.78;;;24.66;38.65
80533;BME280;69861;48.642;9.142;2023-05-07T06:06:09;96951.00;;;24.66;38.56
80533;BME280;69861;48.642;9.142;2023-05-07T06:08:34;96947.25;;;24.67;38.45
80533;BME280;69861;48.642;9.142;2023-05-07T06:11:01;96945.06;;;24.69;38.54
80533;BME280;69861;48.642;9.142;2023-05-07T06:13:27;96946.69;;;24.70;38.37
80533;BME280;69861;48.642;9.142;2023-05-07T06:15:52;96934.06;;;24.70;38.55
80533;BME280;69861;48.642;9.142;2023-05-07T06:18:17;96939.25;;;24.86;38.20
80533;BME280;69861;48.642;9.142;2023-05-07T06:20:43;96946.50;;;24.85;38.36
80533;BME280;69861;48.642;9.142;2023-05-07T06:23:08;96941.94;;;24.86;38.34
80533;BME280;69861;48.642;9.142;2023-05-07T06:25:33;96941.13;;;24.85;37.99
80533;BME280;69861;48.642;9.142;2023-05-07T06:27:58;96938.41;;;24.90;38.31
80533;BME280;69861;48.642;9.142;2023-05-07T06:30:24;96942.69;;;24.91;37.92
80533;BME280;69861;48.642;9.142;2023-05-07T06:32:49;96952.81;;;24.94;37.89
80533;BME280;69861;48.642;9.142;2023-05-07T06:35:14;96954.63;;;24.99;38.10
80533;BME280;69861;48.642;9.142;2023-05-07T06:37:41;96957.03;;;25.00;38.12
80533;BME280;69861;48.642;9.142;2023-05-07T06:40:08;96953.84;;;24.98;38.30
80533;BME280;69861;48.642;9.142;2023-05-07T06:42:33;96952.22;;;24.97;38.26
80533;BME280;69861;48.642;9.142;2023-05-07T06:44:58;96954.91;;;24.97;38.17
80533;BME280;69861;48.642;9.142;2023-05-07T06:47:24;96951.44;;;24.97;38.42
80533;BME280;69861;48.642;9.142;2023-05-07T06:49:49;96953.34;;;24.96;38.53
80533;BME280;69861;48.642;9.142;2023-05-07T06:52:14;96951.44;;;24.97;38.20
80533;BME280;69861;48.642;9.142;2023-05-07T06:54:40;96943.13;;;24.98;38.44
80533;BME280;69861;48.642;9.142;2023-05-07T06:57:05;96951.69;;;25.00;38.54
80533;BME280;69861;48.642;9.142;2023-05-07T06:59:30;96943.91;;;24.99;38.31
80533;BME280;69861;48.642;9.142;2023-05-07T07:01:56;96947.66;;;24.98;38.74
80533;BME280;69861;48.642;9.142;2023-05-07T07:04:21;96954.63;;;24.99;38.31
80533;BME280;69861;48.642;9.142;2023-05-07T07:06:48;96951.69;;;25.00;38.38
80533;BME280;69861;48.642;9.142;2023-05-07T07:09:13;96951.09;;;25.03;38.70
80533;BME280;69861;48.642;9.142;2023-05-07T07:11:38;96955.88;;;25.06;38.39
80533;BME280;69861;48.642;9.142;2023-05-07T07:14:04;96949.50;;;25.02;38.65
80533;BME280;69861;48.642;9.142;2023-05-07T07:16:30;96945.94;;;25.07;39.07
80533;BME280;69861;48.642;9.142;2023-05-07T07:18:55;96941.59;;;25.11;38.47
80533;BME280;69861;48.642;9.142;2023-05-07T07:21:20;96946.75;;;25.07;38.57
80533;BME280;69861;48.642;9.142;2023-05-07T07:23:46;96944.56;;;25.09;38.84
80533;BME280;69861;48.642;9.142;2023-05-07T07:26:11;96949.91;;;25.09;38.83
80533;BME280;69861;48.642;9.142;2023-05-07T07:28:42;96950.50;;;25.06;38.98
80533;BME280;69861;48.642;9.142;2023-05-07T07:31:08;96953.13;;;25.11;38.80
80533;BME280;69861;48.642;9.142;2023-05-07T07:33:33;96950.94;;;25.13;38.81
80533;BME280;69861;48.642;9.142;2023-05-07T07:35:59;96946.69;;;25.12;38.77
80533;BME280;69861;48.642;9.142;2023-05-07T07:38:24;96954.72;;;25.12;38.80
80533;BME280;69861;48.642;9.142;2023-05-07T07:40:49;96951.19;;;25.17;38.76
80533;BME280;69861;48.642;9.142;2023-05-07T07:43:15;96948.41;;;25.22;38.59
80533;BME280;69861;48.642;9.142;2023-05-07T07:45:40;96945.84;;;25.31;38.58
80533;BME280;69861;48.642;9.142;2023-05-07T07:48:05;96954.63;;;25.36;39.19
80533;BME280;69861;48.642;9.142;2023-05-07T07:50:31;96954.25;;;25.43;38.34
80533;BME280;69861;48.642;9.142;2023-05-07T07:52:56;96948.78;;;25.53;37.98
80533;BME280;69861;48.642;9.142;2023-05-07T07:55:22;96958.56;;;25.62;37.97
80533;BME280;69861;48.642;9.142;2023-05-07T07:57:49;96951.88;;;25.60;38.21
80533;BME280;69861;48.642;9.142;2023-05-07T08:00:15;96952.88;;;25.64;37.72
80533;BME280;69861;48.642;9.142;2023-05-07T08:02:40;96960.56;;;25.71;37.66
80533;BME280;69861;48.642;9.142;2023-05-07T08:05:06;96954.59;;;25.74;37.60
80533;BME280;69861;48.642;9.142;2023-05-07T08:07:31;96953.00;;;25.73;38.16
80533;BME280;69861;48.642;9.142;2023-05-07T08:09:56;96962.53;;;25.65;38.08
80533;BME280;69861;48.642;9.142;2023-05-07T08:12:22;96962.94;;;25.72;38.10
80533;BME280;69861;48.642;9.142;2023-05-07T08:14:47;96964.75;;;25.77;38.11
80533;BME280;69861;48.642;9.142;2023-05-07T08:17:12;96956.00;;;25.71;37.88
80533;BME280;69861;48.642;9.142;2023-05-07T08:19:41;96953.88;;;25.68;37.99
80533;BME280;69861;48.642;9.142;2023-05-07T08:22:07;96958.81;;;25.80;37.69
80533;BME280;69861;48.642;9.142;2023-05-07T08:24:32;96957.13;;;25.84;37.59
80533;BME280;69861;48.642;9.142;2023-05-07T08:26:58;96959.31;;;25.82;37.56
80533;BME280;69861;48.642;9.142;2023-05-07T08:29:23;96953.13;;;25.81;37.39
80533;BME280;69861;48.642;9.142;2023-05-07T08:31:48;96960.91;;;25.83;37.46
80533;BME280;69861;48.642;9.142;2023-05-07T08:34:14;96953.06;;;25.86;38.75
80533;BME280;69861;48.642;9.142;2023-05-07T08:36:39;96957.25;;;25.92;37.63
80533;BME280;69861;48.642;9.142;2023-05-07T08:39:06;96953.47;;;25.93;37.63
80533;BME280;69861;48.642;9.142;2023-05-07T08:41:32;96954.25;;;25.94;37.46
80533;BME280;69861;48.642;9.142;2023-05-07T08:43:58;96951.09;;;25.92;37.46
80533;BME280;69861;48.642;9.142;2023-05-07T08:46:25;96958.75;;;25.98;37.33
80533;BME280;69861;48.642;9.142;2023-05-07T08:48:52;96953.09;;;26.00;37.29
80533;BME280;69861;48.642;9.142;2023-05-07T08:51:19;96948.53;;;26.00;37.26
80533;BME280;69861;48.642;9.142;2023-05-07T08:53:46;96953.09;;;26.00;37.30
80533;BME280;69861;48.642;9.142;2023-05-07T08:56:13;96954.22;;;26.13;37.38
80533;BME280;69861;48.642;9.142;2023-05-07T08:58:40;96961.94;;;26.14;37.17
80533;BME280;69861;48.642;9.142;2023-05-07T09:01:10;96957.56;;;26.18;37.05
80533;BME280;69861;48.642;9.142;2023-05-07T09:03:38;96960.88;;;26.15;37.02
80533;BME280;69861;48.642;9.142;2023-05-07T09:06:04;96962.47;;;26.16;37.13
80533;BME280;69861;48.642;9.142;2023-05-07T09:08:30;96954.78;;;26.09;37.40
80533;BME280;69861;48.642;9.142;2023-05-07T09:10:55;96949.09;;;25.97;38.19
80533;BME280;69861;48.642;9.142;2023-05-07T09:13:21;96955.06;;;25.94;37.64
80533;BME280;69861;48.642;9.142;2023-05-07T09:15:46;96948.69;;;25.90;38.13
80533;BME280;69861;48.642;9.142;2023-05-07T09:18:14;96957.56;;;26.04;37.63
80533;BME280;69861;48.642;9.142;2023-05-07T09:20:40;96945.72;;;26.05;37.70
80533;BME280;69861;48.642;9.142;2023-05-07T09:23:06;96939.94;;;25.98;37.70
80533;BME280;69861;48.642;9.142;2023-05-07T09:25:33;96938.81;;;25.86;38.09
80533;BME280;69861;48.642;9.142;2023-05-07T09:28:00;96945.59;;;25.97;37.73
80533;BME280;69861;48.642;9.142;2023-05-07T09:30:30;96939.59;;;26.05;37.55
80533;BME280;69861;48.642;9.142;2023-05-07T09:32:59;96935.50;;;26.07;37.47
80533;BME280;69861;48.642;9.142;2023-05-07T09:35:26;96936.56;;;26.06;37.88
80533;BME280;69861;48.642;9.142;2023-05-07T09:37:59;96945.44;;;26.07;37.82
80533;BME280;69861;48.642;9.142;2023-05-07T09:40:26;96938.34;;;25.97;37.92
80533;BME280;69861;48.642;9.142;2023-05-07T09:42:53;96935.97;;;25.96;37.83
80533;BME280;69861;48.642;9.142;2023-05-07T09:45:28;96933.56;;;25.94;38.05
80533;BME280;69861;48.642;9.142;2023-05-07T09:47:55;96935.19;;;25.95;37.94
80533;BME280;69861;48.642;9.142;2023-05-07T09:50:29;96932.97;;;25.97;38.29
80533;BME280;69861;48.642;9.142;2023-05-07T09:52:55;96932.28;;;26.38;38.28
80533;BME280;69861;48.642;9.142;2023-05-07T09:55:22;96928.28;;;26.22;37.54
80533;BME280;69861;48.642;9.142;2023-05-07T09:57:50;96929.28;;;26.26;37.40
80533;BME280;69861;48.642;9.142;2023-05-07T10:00:17;96926.00;;;26.29;37.30
80533;BME280;69861;48.642;9.142;2023-05-07T10:02:45;96932.59;;;26.18;37.88
80533;BME280;69861;48.642;9.142;2023-05-07T10:05:14;96925.25;;;26.09;37.59
80533;BME280;69861;48.642;9.142;2023-05-07T10:07:40;96920.06;;;25.99;37.95
80533;BME280;69861;48.642;9.142;2023-05-07T10:10:06;96917.50;;;26.08;38.12
80533;BME280;69861;48.642;9.142;2023-05-07T10:12:32;96916.81;;;26.16;37.94
80533;BME280;69861;48.642;9.142;2023-05-07T10:15:10;96923.47;;;26.19;37.66
80533;BME280;69861;48.642;9.142;2023-05-07T10:17:37;96915.16;;;26.20;37.56
80533;BME280;69861;48.642;9.142;2023-05-07T10:20:04;96907.88;;;26.21;37.88
80533;BME280;69861;48.642;9.142;2023-05-07T10:22:37;96910.56;;;26.21;37.76
80533;BME280;69861;48.642;9.142;2023-05-07T10:25:06;96909.97;;;26.24;37.69
80533;BME280;69861;48.642;9.142;2023-05-07T10:27:34;96904.31;;;26.25;37.62
80533;BME280;69861;48.642;9.142;2023-05-07T10:32:49;96897.06;;;26.26;37.56
80533;BME280;69861;48.642;9.142;2023-05-07T10:35:21;96891.38;;;26.27;37.53
80533;BME280;69861;48.642;9.142;2023-05-07T10:37:48;96886.78;;;26.28;37.61
80533;BME280;69861;48.642;9.142;2023-05-07T10:40:14;96893.84;;;26.24;37.56
80533;BME280;69861;48.642;9.142;2023-05-07T10:42:56;96892.44;;;26.26;37.54
80533;BME280;69861;48.642;9.142;2023-05-07T10:45:22;96895.13;;;26.26;37.58
80533;BME280;69861;48.642;9.142;2023-05-07T10:48:13;96896.84;;;26.36;37.84
80533;BME280;69861;48.642;9.142;2023-05-07T10:50:41;96893.44;;;26.30;37.68
80533;BME280;69861;48.642;9.142;2023-05-07T10:53:23;96890.19;;;26.20;37.81
80533;BME280;69861;48.642;9.142;2023-05-07T10:58:37;96899.09;;;26.15;37.73
80533;BME280;69861;48.642;9.142;2023-05-07T11:01:02;96884.66;;;26.11;37.74
80533;BME280;69861;48.642;9.142;2023-05-07T11:03:28;96880.69;;;26.08;38.17
80533;BME280;69861;48.642;9.142;2023-05-07T11:06:15;96886.34;;;26.07;38.16
80533;BME280;69861;48.642;9.142;2023-05-07T11:08:56;96882.06;;;26.06;37.93
80533;BME280;69861;48.642;9.142;2023-05-07T11:14:09;96880.69;;;26.08;37.93
80533;BME280;69861;48.642;9.142;2023-05-07T11:16:35;96879.09;;;26.07;37.87
80533;BME280;69861;48.642;9.142;2023-05-07T11:19:02;96868.56;;;26.11;38.22
80533;BME280;69861;48.642;9.142;2023-05-07T11:21:47;96868.28;;;26.13;38.24
80533;BME280;69861;48.642;9.142;2023-05-07T11:24:14;96874.84;;;26.20;38.02
80533;BME280;69861;48.642;9.142;2023-05-07T11:26:42;96869.19;;;26.22;37.96
80533;BME280;69861;48.642;9.142;2023-05-07T11:29:12;96874.44;;;26.27;37.80
80533;BME280;69861;48.642;9.142;2023-05-07T11:31:38;96868.97;;;26.32;37.63
80533;BME280;69861;48.642;9.142;2023-05-07T11:34:05;96873.56;;;26.31;37.62
80533;BME280;69861;48.642;9.142;2023-05-07T11:36:32;96862.00;;;26.31;37.62
80533;BME280;69861;48.642;9.142;2023-05-07T11:38:57;96859.44;;;26.26;37.93
80533;BME280;69861;48.642;9.142;2023-05-07T11:41:33;96859.94;;;26.28;37.73
80533;BME280;69861;48.642;9.142;2023-05-07T11:43:59;96857.41;;;26.18;37.89
80533;BME280;69861;48.642;9.142;2023-05-07T11:46:26;96852.72;;;26.09;38.52
80533;BME280;69861;48.642;9.142;2023-05-07T11:50:05;96853.25;;;26.12;38.13
80533;BME280;69861;48.642;9.142;2023-05-07T11:52:31;96854.22;;;26.16;38.27
80533;BME280;69861;48.642;9.142;2023-05-07T11:54:58;96851.25;;;26.03;38.33
80533;BME280;69861;48.642;9.142;2023-05-07T11:57:25;96853.84;;;26.08;38.19
80533;BME280;69861;48.642;9.142;2023-05-07T11:59:58;96863.19;;;26.11;38.46
80533;BME280;69861;48.642;9.142;2023-05-07T12:02:24;96862.47;;;26.05;38.29
80533;BME280;69861;48.642;9.142;2023-05-07T12:04:50;96855.63;;;25.99;38.55
80533;BME280;69861;48.642;9.142;2023-05-07T12:07:16;96857.00;;;26.10;38.58
80533;BME280;69861;48.642;9.142;2023-05-07T12:09:44;96853.25;;;26.12;38.64
80533;BME280;69861;48.642;9.142;2023-05-07T12:12:10;96861.78;;;26.14;38.40
80533;BME280;69861;48.642;9.142;2023-05-07T12:14:39;96863.47;;;26.09;38.52
80533;BME280;69861;48.642;9.142;2023-05-07T12:17:07;96876.31;;;26.13;38.27
80533;BME280;69861;48.642;9.142;2023-05-07T12:19:34;96883.88;;;26.10;38.34
80533;BME280;69861;48.642;9.142;2023-05-07T12:21:59;96895.41;;;26.11;38.57
80533;BME280;69861;48.642;9.142;2023-05-07T12:24:28;96908.94;;;26.06;38.76
80533;BME280;69861;48.642;9.142;2023-05-07T12:26:54;96925.25;;;26.09;38.75
80533;BME280;69861;48.642;9.142;2023-05-07T12:29:23;96930.59;;;26.09;38.74
80533;BME280;69861;48.642;9.142;2023-05-07T12:31:49;96936.78;;;26.10;38.45
80533;BME280;69861;48.642;9.142;2023-05-07T12:34:15;96975.19;;;26.10;38.51
80533;BME280;69861;48.642;9.142;2023-05-07T12:36:41;96981.94;;;26.08;38.60
80533;BME280;69861;48.642;9.142;2023-05-07T12:39:07;96981.94;;;26.08;38.46
80533;BME280;69861;48.642;9.142;2023-05-07T12:41:55;96971.22;;;26.08;38.67
80533;BME280;69861;48.642;9.142;2023-05-07T12:44:39;96967.88;;;25.97;38.87
80533;BME280;69861;48.642;9.142;2023-05-07T12:47:04;96973.84;;;25.94;38.85
80533;BME280;69861;48.642;9.142;2023-05-07T12:49:30;96975.66;;;25.99;38.77
80533;BME280;69861;48.642;9.142;2023-05-07T12:51:55;96973.19;;;26.02;38.92
80533;BME280;69861;48.642;9.142;2023-05-07T12:54:32;96981.16;;;26.07;38.54
80533;BME280;69861;48.642;9.142;2023-05-07T12:57:18;96984.13;;;26.06;38.83
80533;BME280;69861;48.642;9.142;2023-05-07T12:59:44;96985.44;;;26.08;38.68
80533;BME280;69861;48.642;9.142;2023-05-07T13:02:09;96998.25;;;26.12;38.78
80533;BME280;69861;48.642;9.142;2023-05-07T13:04:35;96988.69;;;26.05;38.55
80533;BME280;69861;48.642;9.142;2023-05-07T13:07:01;96990.59;;;26.05;38.60